createdAt,value
2022-10-29T00:04:04.008Z,101285.00
2022-10-29T00:14:04.000Z,101282.00
2022-10-29T00:24:04.008Z,101285.00
2022-10-29T00:34:04.094Z,101289.00
2022-10-29T00:44:04.056Z,101289.00
2022-10-29T00:54:04.067Z,101287.00
2022-10-29T01:04:04.052Z,101284.00
2022-10-29T01:14:04.093Z,101274.00
2022-10-29T01:24:04.080Z,101272.00
2022-10-29T01:34:04.174Z,101264.00
2022-10-29T01:44:04.156Z,101262.00
2022-10-29T01:54:04.152Z,101254.00
2022-10-29T02:04:04.195Z,101242.00
2022-10-29T02:14:04.220Z,101237.00
2022-10-29T02:24:04.233Z,101227.00
2022-10-29T02:34:06.765Z,101215.00
2022-10-29T02:44:06.245Z,101207.00
2022-10-29T02:54:06.234Z,101207.00
2022-10-29T03:04:06.312Z,101215.00
2022-10-29T03:14:06.266Z,101207.00
2022-10-29T03:24:06.269Z,101195.00
2022-10-29T03:34:06.294Z,101190.00
2022-10-29T03:44:06.265Z,101182.00
2022-10-29T03:54:06.316Z,101172.00
2022-10-29T04:04:06.364Z,101168.00
2022-10-29T04:14:06.329Z,101168.00
2022-10-29T04:34:07.334Z,101168.00
2022-10-29T04:44:07.390Z,101158.00
2022-10-29T04:54:07.411Z,101144.00
2022-10-29T05:04:07.411Z,101119.00
2022-10-29T05:14:07.441Z,101117.00
2022-10-29T05:24:07.423Z,101113.00
2022-10-29T05:34:07.453Z,101113.00
2022-10-29T05:44:07.472Z,101117.00
2022-10-29T05:54:07.507Z,101119.00
2022-10-29T06:04:07.509Z,101113.00
2022-10-29T06:14:07.478Z,101111.00
2022-10-29T06:24:07.557Z,101099.00
2022-10-29T06:34:07.535Z,101097.00
2022-10-29T06:44:07.578Z,101088.00
2022-10-29T06:54:07.542Z,101090.00
2022-10-29T07:04:07.672Z,101101.00
2022-10-29T07:14:07.577Z,101109.00
2022-10-29T07:24:07.626Z,101103.00
2022-10-29T07:34:07.644Z,101115.00
2022-10-29T07:44:07.624Z,101125.00
2022-10-29T07:54:12.175Z,101135.00
2022-10-29T08:04:08.687Z,101129.00
2022-10-29T08:14:08.748Z,101129.00
2022-10-29T08:24:08.724Z,101129.00
2022-10-29T08:34:11.294Z,101117.00
2022-10-29T08:44:10.739Z,101109.00
2022-10-29T08:54:29.902Z,101109.00
2022-10-29T09:04:11.770Z,101109.00
2022-10-29T09:14:11.741Z,101103.00
2022-10-29T09:24:11.794Z,101097.00
2022-10-29T09:34:11.790Z,101096.00
2022-10-29T09:44:11.792Z,101086.00
2022-10-29T09:54:11.798Z,101074.00
2022-10-29T10:04:11.875Z,101072.00
2022-10-29T10:14:11.819Z,101068.00
2022-10-29T10:24:11.875Z,101066.00
2022-10-29T10:34:11.894Z,101064.00
2022-10-29T10:44:11.853Z,101046.00
2022-10-29T10:54:11.918Z,101036.00
2022-10-29T11:04:11.934Z,101030.00
2022-10-29T11:14:11.895Z,101022.00
2022-10-29T11:24:12.054Z,101012.00
2022-10-29T11:34:12.023Z,101012.00
2022-10-29T11:44:11.967Z,101011.00
2022-10-29T11:54:12.054Z,101005.00
2022-10-29T12:04:12.033Z,101003.00
2022-10-29T12:14:12.092Z,100991.00
2022-10-29T12:24:12.066Z,100987.00
2022-10-29T12:34:12.122Z,100977.00
2022-10-29T12:44:12.098Z,100967.00
2022-10-29T12:54:12.090Z,100958.00
2022-10-29T13:04:12.145Z,100944.00
2022-10-29T13:14:12.060Z,100938.00
2022-10-29T13:24:12.139Z,100930.00
2022-10-29T13:34:12.097Z,100918.00
2022-10-29T13:44:12.214Z,100911.00
2022-10-29T13:54:12.255Z,100897.00
2022-10-29T14:04:12.283Z,100887.00
2022-10-29T14:14:12.157Z,100877.00
2022-10-29T14:24:12.213Z,100873.00
2022-10-29T14:34:12.306Z,100865.00
2022-10-29T14:44:12.226Z,100862.00
2022-10-29T14:54:12.326Z,100858.00
2022-10-29T15:04:21.368Z,100858.00
2022-10-29T15:14:21.345Z,100858.00
2022-10-29T15:24:21.347Z,100854.00
2022-10-29T15:34:21.300Z,100858.00
2022-10-29T15:44:21.329Z,100856.00
2022-10-29T15:54:21.333Z,100854.00
2022-10-29T16:04:21.300Z,100846.00
2022-10-29T16:14:21.373Z,100846.00
2022-10-29T16:24:21.464Z,100842.00
2022-10-29T16:34:23.843Z,100832.00
2022-10-29T16:44:22.397Z,100822.00
2022-10-29T16:54:22.388Z,100819.00
2022-10-29T17:04:22.539Z,100817.00
2022-10-29T17:14:22.417Z,100820.00
2022-10-29T17:24:22.492Z,100826.00
2022-10-29T17:34:22.473Z,100826.00
2022-10-29T17:44:22.540Z,100830.00
2022-10-29T17:54:22.485Z,100834.00
2022-10-29T18:04:22.487Z,100838.00
2022-10-29T18:14:22.549Z,100840.00
2022-10-29T18:24:22.621Z,100834.00
2022-10-29T18:34:22.616Z,100832.00
2022-10-29T18:44:22.555Z,100834.00
2022-10-29T18:54:22.720Z,100834.00
2022-10-29T19:04:22.592Z,100832.00
2022-10-29T19:14:22.648Z,100828.00
2022-10-29T19:24:22.612Z,100830.00
2022-10-29T19:34:22.636Z,100826.00
2022-10-29T19:44:22.614Z,100826.00
2022-10-29T19:54:22.666Z,100826.00
2022-10-29T20:04:22.650Z,100826.00
2022-10-29T20:14:28.004Z,100824.00
2022-10-29T20:24:23.784Z,100822.00
2022-10-29T20:34:23.771Z,100822.00
2022-10-29T20:44:23.813Z,100822.00
2022-10-29T20:54:23.796Z,100820.00
2022-10-29T21:04:23.763Z,100828.00
2022-10-29T21:14:26.799Z,100836.00
2022-10-29T21:24:26.773Z,100844.00
2022-10-29T21:34:26.997Z,100852.00
2022-10-29T21:44:26.797Z,100860.00
2022-10-29T21:54:29.849Z,100862.00
2022-10-29T22:04:29.917Z,100863.00
2022-10-29T22:14:29.871Z,100869.00
2022-10-29T22:24:29.848Z,100865.00
2022-10-29T22:34:29.846Z,100862.00
2022-10-29T22:44:29.894Z,100862.00
2022-10-29T22:54:29.968Z,100860.00
2022-10-29T23:04:29.911Z,100852.00
2022-10-29T23:14:30.025Z,100854.00
2022-10-29T23:24:29.917Z,100856.00
2022-10-29T23:34:30.057Z,100860.00
2022-10-29T23:44:30.010Z,100860.00
2022-10-29T23:54:30.108Z,100860.00
